createdAt,value
2018-03-15T06:39:18.088Z,1009.68
2018-03-15T06:40:02.816Z,1009.71
2018-03-15T06:40:47.537Z,1009.69
2018-03-15T06:41:32.266Z,1009.72
2018-03-15T06:42:16.988Z,1009.69
2018-03-15T06:43:01.695Z,1009.76
2018-03-15T06:43:46.397Z,1009.78
2018-03-15T06:44:31.104Z,1009.76
2018-03-15T06:45:15.835Z,1009.84
2018-03-15T06:46:00.562Z,1009.85
2018-03-15T06:46:45.316Z,1009.85
2018-03-15T06:47:30.066Z,1009.94
2018-03-15T06:48:14.779Z,1009.90
2018-03-15T06:48:59.483Z,1009.95
2018-03-15T06:49:44.224Z,1009.95
2018-03-15T06:50:28.909Z,1009.96
2018-03-15T06:51:13.637Z,1009.98
2018-03-15T06:51:58.371Z,1009.94
2018-03-15T06:52:43.072Z,1009.98
2018-03-15T06:53:27.775Z,1010.00
2018-03-15T06:54:12.481Z,1010.02
2018-03-15T06:54:57.221Z,1010.02
2018-03-15T06:55:41.964Z,1010.06
2018-03-15T06:56:26.664Z,1010.11
2018-03-15T06:57:11.398Z,1010.10
2018-03-15T06:57:56.208Z,1010.05
2018-03-15T06:58:40.943Z,1010.05
2018-03-15T06:59:25.675Z,1010.06
2018-03-15T07:00:10.387Z,1010.05
2018-03-15T07:00:55.137Z,1010.06
2018-03-15T07:01:39.863Z,1010.07
2018-03-15T07:02:24.572Z,1010.08
2018-03-15T07:03:09.274Z,1010.05
2018-03-15T07:03:53.982Z,1010.08
2018-03-15T07:04:38.689Z,1010.05
2018-03-15T07:05:23.397Z,1010.11
2018-03-15T07:06:08.172Z,1010.11
2018-03-15T07:06:52.916Z,1010.10
2018-03-15T07:07:37.655Z,1010.08
2018-03-15T07:08:22.362Z,1010.09
2018-03-15T07:09:07.089Z,1010.08
2018-03-15T07:09:51.795Z,1010.06
2018-03-15T07:10:36.531Z,1010.12
2018-03-15T07:11:21.277Z,1010.11
2018-03-15T07:12:05.988Z,1010.08
2018-03-15T07:12:50.691Z,1010.10
2018-03-15T07:13:35.396Z,1010.12
2018-03-15T07:14:20.104Z,1010.11
2018-03-15T07:15:04.835Z,1010.10
2018-03-15T07:15:49.563Z,1010.11
2018-03-15T07:16:34.308Z,1010.13
2018-03-15T07:17:18.995Z,1010.12
2018-03-15T07:18:03.923Z,1010.14
2018-03-15T07:18:48.632Z,1010.15
2018-03-15T07:19:33.339Z,1010.15
2018-03-15T07:20:18.118Z,1010.14
2018-03-15T07:21:02.827Z,1010.15
2018-03-15T07:21:47.533Z,1010.17
2018-03-15T07:22:32.262Z,1010.18
2018-03-15T07:23:16.966Z,1010.19
2018-03-15T07:24:01.676Z,1010.19
2018-03-15T07:24:46.379Z,1010.20
2018-03-15T07:25:31.133Z,1010.20
2018-03-15T07:26:15.838Z,1010.19
2018-03-15T07:27:00.551Z,1010.17
2018-03-15T07:27:45.278Z,1010.18
2018-03-15T07:28:29.988Z,1010.17
2018-03-15T07:29:14.696Z,1010.21
2018-03-15T07:29:59.418Z,1010.19
2018-03-15T07:30:44.127Z,1010.23
2018-03-15T07:31:28.886Z,1010.21
2018-03-15T07:32:13.615Z,1010.20
2018-03-15T07:32:58.350Z,1010.23
2018-03-15T07:33:43.055Z,1010.26
2018-03-15T07:34:27.778Z,1010.25
2018-03-15T07:35:12.492Z,1010.25
2018-03-15T07:35:57.192Z,1010.22
2018-03-15T07:36:41.951Z,1010.21
2018-03-15T07:37:26.678Z,1010.20
2018-03-15T07:38:11.440Z,1010.23
2018-03-15T07:38:56.191Z,1010.23
2018-03-15T07:39:40.924Z,1010.23
2018-03-15T07:40:25.632Z,1010.21
2018-03-15T07:41:10.411Z,1010.24
2018-03-15T07:41:55.142Z,1010.21
2018-03-15T07:42:39.845Z,1010.20
2018-03-15T07:43:24.554Z,1010.21
2018-03-15T07:44:09.281Z,1010.23
2018-03-15T07:44:53.992Z,1010.25
2018-03-15T07:45:38.695Z,1010.26
2018-03-15T07:46:23.404Z,1010.26
2018-03-15T07:47:08.159Z,1010.26
2018-03-15T07:47:52.889Z,1010.26
2018-03-15T07:48:37.577Z,1010.27
2018-03-15T07:49:22.286Z,1010.27
2018-03-15T07:50:07.016Z,1010.25
2018-03-15T07:50:51.762Z,1010.26
2018-03-15T07:51:36.500Z,1010.24
2018-03-15T07:52:21.223Z,1010.24
2018-03-15T07:53:05.930Z,1010.25
2018-03-15T07:53:50.634Z,1010.25
2018-03-15T07:54:35.393Z,1010.24
2018-03-15T07:55:20.131Z,1010.24
2018-03-15T07:56:04.870Z,1010.25
2018-03-15T07:56:49.579Z,1010.24
2018-03-15T07:57:34.401Z,1010.23
2018-03-15T07:58:19.097Z,1010.22
2018-03-15T07:59:03.853Z,1010.23
2018-03-15T07:59:48.575Z,1010.22
2018-03-15T08:00:33.321Z,1010.24
2018-03-15T08:01:18.068Z,1010.24
2018-03-15T08:02:02.823Z,1010.31
2018-03-15T08:02:47.504Z,1010.27
2018-03-15T08:03:32.211Z,1010.27
2018-03-15T08:04:16.968Z,1010.28
2018-03-15T08:05:01.703Z,1010.29
2018-03-15T08:05:46.456Z,1010.31
2018-03-15T08:06:31.173Z,1010.32
2018-03-15T08:07:15.936Z,1010.30
2018-03-15T08:08:00.601Z,1010.34
2018-03-15T08:08:45.362Z,1010.38
2018-03-15T08:09:30.117Z,1010.37
2018-03-15T08:10:14.886Z,1010.37
2018-03-15T08:10:59.649Z,1010.39
2018-03-15T08:11:44.413Z,1010.35
2018-03-15T08:12:29.131Z,1010.32
2018-03-15T08:13:13.839Z,1010.33
2018-03-15T08:13:58.617Z,1010.27
2018-03-15T08:14:43.397Z,1010.32
2018-03-15T08:15:28.127Z,1010.34
2018-03-15T08:16:12.832Z,1010.32
2018-03-15T08:16:57.560Z,1010.34
2018-03-15T08:17:42.276Z,1010.32
2018-03-15T08:18:27.024Z,1010.30
2018-03-15T08:19:11.731Z,1010.32
2018-03-15T08:19:56.464Z,1010.32
2018-03-15T08:20:41.171Z,1010.31
2018-03-15T08:21:25.882Z,1010.32
2018-03-15T08:22:10.608Z,1010.30
2018-03-15T08:22:55.316Z,1010.22
2018-03-15T08:23:40.017Z,1010.24
2018-03-15T08:24:24.775Z,1010.24
2018-03-15T08:25:09.493Z,1010.20
2018-03-15T08:25:54.221Z,1010.20
2018-03-15T08:26:38.961Z,1010.17
2018-03-15T08:27:23.676Z,1010.17
2018-03-15T08:28:08.412Z,1010.15
2018-03-15T08:28:53.141Z,1010.15
2018-03-15T08:29:37.873Z,1010.14
2018-03-15T08:30:22.635Z,1010.11
2018-03-15T08:31:07.371Z,1010.15
2018-03-15T08:31:52.124Z,1010.08
2018-03-15T08:32:36.866Z,1010.05
2018-03-15T08:33:21.661Z,1010.05
2018-03-15T08:34:06.367Z,1010.05
2018-03-15T08:34:51.150Z,1010.05
2018-03-15T08:35:35.894Z,1010.06
2018-03-15T08:36:20.597Z,1010.02
2018-03-15T08:37:05.350Z,1010.02
2018-03-15T08:37:50.057Z,1010.05
2018-03-15T08:38:34.767Z,1010.07
2018-03-15T08:39:19.513Z,1010.09
2018-03-15T08:40:04.252Z,1010.12
2018-03-15T08:40:48.983Z,1010.05
2018-03-15T08:41:33.748Z,1010.12
2018-03-15T08:42:18.477Z,1010.10
2018-03-15T08:43:03.182Z,1010.07
2018-03-15T08:43:47.888Z,1010.03
2018-03-15T08:44:32.596Z,1010.02
2018-03-15T08:45:17.329Z,1010.03
2018-03-15T08:46:02.007Z,1009.92
2018-03-15T08:46:46.714Z,1010.02
2018-03-15T08:47:31.442Z,1010.03
2018-03-15T08:48:16.177Z,1010.03
2018-03-15T08:49:00.940Z,1009.98
2018-03-15T08:49:45.652Z,1009.94
2018-03-15T08:50:30.359Z,1009.93
2018-03-15T08:51:15.067Z,1009.92
2018-03-15T08:51:59.850Z,1009.95
2018-03-15T08:52:44.572Z,1009.90
2018-03-15T08:53:29.280Z,1009.74
2018-03-15T08:54:13.989Z,1009.70
2018-03-15T08:54:58.690Z,1009.67
2018-03-15T08:55:43.403Z,1009.68
2018-03-15T08:56:28.134Z,1009.66
2018-03-15T08:57:12.845Z,1009.69
2018-03-15T08:57:57.565Z,1009.73
2018-03-15T08:58:42.277Z,1009.76
2018-03-15T08:59:27.037Z,1009.76
2018-03-15T09:00:11.786Z,1009.75
2018-03-15T09:00:56.448Z,1009.77
2018-03-15T09:01:41.154Z,1009.79
2018-03-15T09:02:25.883Z,1009.87
2018-03-15T09:03:10.591Z,1009.87
2018-03-15T09:03:55.327Z,1009.82
2018-03-15T09:04:40.593Z,1009.82
2018-03-15T09:05:24.806Z,1009.78
2018-03-15T09:06:09.515Z,1009.77
2018-03-15T09:06:54.267Z,1009.77
2018-03-15T09:07:38.972Z,1009.74
2018-03-15T09:08:23.665Z,1009.74
2018-03-15T09:09:08.403Z,1009.74
2018-03-15T09:09:53.115Z,1009.74
2018-03-15T09:10:37.840Z,1009.72
2018-03-15T09:11:22.570Z,1009.74
2018-03-15T09:12:07.282Z,1009.72
2018-03-15T09:12:51.980Z,1009.71
2018-03-15T09:13:36.716Z,1009.71
2018-03-15T09:14:21.459Z,1009.73
2018-03-15T09:15:06.163Z,1009.66
2018-03-15T09:15:50.871Z,1009.67
2018-03-15T09:16:35.804Z,1009.68
2018-03-15T09:17:20.516Z,1009.74
2018-03-15T09:18:05.243Z,1009.65
2018-03-15T09:18:50.027Z,1009.62
2018-03-15T09:19:34.731Z,1009.62
2018-03-15T09:20:19.481Z,1009.72
2018-03-15T09:21:04.220Z,1009.74
2018-03-15T09:21:48.928Z,1009.75
2018-03-15T09:22:33.634Z,1009.73
2018-03-15T09:23:18.366Z,1009.71
2018-03-15T09:24:03.100Z,1009.70
2018-03-15T09:24:47.809Z,1009.67
2018-03-15T09:25:32.534Z,1009.65
2018-03-15T09:26:17.246Z,1009.66
2018-03-15T09:27:02.004Z,1009.68
2018-03-15T09:27:46.703Z,1009.68
2018-03-15T09:28:31.442Z,1009.67
2018-03-15T09:29:16.171Z,1009.75
2018-03-15T09:30:00.877Z,1009.73
2018-03-15T09:30:45.634Z,1009.63
2018-03-15T09:31:30.353Z,1009.59
2018-03-15T09:32:15.067Z,1009.56
2018-03-15T09:32:59.768Z,1009.64
2018-03-15T09:33:44.480Z,1009.79
2018-03-15T09:34:29.221Z,1009.92
2018-03-15T09:35:13.911Z,1009.76
2018-03-15T09:35:58.615Z,1009.79
2018-03-15T09:36:43.333Z,1009.69
2018-03-15T09:37:28.045Z,1009.60
2018-03-15T09:38:12.801Z,1009.59
2018-03-15T09:38:57.472Z,1009.56
2018-03-15T09:39:42.162Z,1009.56
2018-03-15T09:40:26.878Z,1009.61
2018-03-15T09:41:11.576Z,1009.65
2018-03-15T09:41:56.289Z,1009.67
2018-03-15T09:42:41.004Z,1009.65
2018-03-15T09:43:25.711Z,1009.69
2018-03-15T09:44:10.421Z,1009.64
2018-03-15T09:44:55.148Z,1009.59
2018-03-15T09:45:39.912Z,1009.50
2018-03-15T09:46:24.618Z,1009.49
2018-03-15T09:47:09.377Z,1009.50
2018-03-15T09:47:54.100Z,1009.55
2018-03-15T09:48:38.826Z,1009.64
2018-03-15T09:49:23.528Z,1009.78
2018-03-15T09:50:08.268Z,1009.74
2018-03-15T09:50:53.028Z,1009.82
2018-03-15T09:51:37.788Z,1009.91
2018-03-15T09:52:22.535Z,1009.83
2018-03-15T09:53:07.235Z,1009.80
2018-03-15T09:53:51.969Z,1009.53
2018-03-15T09:54:36.743Z,1009.46
2018-03-15T09:55:21.493Z,1009.58
2018-03-15T09:56:06.222Z,1009.58
2018-03-15T09:56:50.993Z,1009.52
2018-03-15T09:57:35.701Z,1009.46
2018-03-15T09:58:20.513Z,1009.41
2018-03-15T09:59:05.239Z,1009.39
2018-03-15T09:59:49.949Z,1009.49
2018-03-15T10:00:34.787Z,1009.40
2018-03-15T10:01:19.441Z,1009.38
2018-03-15T10:02:04.161Z,1009.36
2018-03-15T10:02:48.868Z,1009.41
2018-03-15T10:03:33.662Z,1009.40
2018-03-15T10:04:18.370Z,1009.39
2018-03-15T10:05:03.090Z,1009.42
2018-03-15T10:05:47.864Z,1009.42
2018-03-15T10:06:32.543Z,1009.42
2018-03-15T10:07:17.283Z,1009.44
2018-03-15T10:08:02.037Z,1009.47
2018-03-15T10:09:46.295Z,1009.50
2018-03-15T10:10:31.073Z,1009.49
2018-03-15T10:11:15.796Z,1009.48
2018-03-15T10:12:00.506Z,1009.45
2018-03-15T10:12:45.344Z,1009.45
2018-03-15T10:13:30.086Z,1009.43
2018-03-15T10:14:14.787Z,1009.45
2018-03-15T10:14:59.497Z,1009.44
2018-03-15T10:15:44.295Z,1009.40
2018-03-15T10:16:29.076Z,1009.37
2018-03-15T10:17:13.860Z,1009.36
2018-03-15T10:17:58.592Z,1009.25
2018-03-15T10:18:43.297Z,1009.26
2018-03-15T10:19:28.003Z,1009.25
2018-03-15T10:20:12.720Z,1009.18
2018-03-15T10:20:57.450Z,1009.16
2018-03-15T10:21:42.187Z,1009.16
2018-03-15T10:22:26.902Z,1009.09
2018-03-15T10:23:11.671Z,1009.07
2018-03-15T10:23:56.378Z,1009.09
2018-03-15T10:24:41.085Z,1009.07
2018-03-15T10:25:26.390Z,1009.09
2018-03-15T10:26:10.562Z,1009.10
2018-03-15T10:26:55.325Z,1009.12
2018-03-15T10:27:40.034Z,1009.13
2018-03-15T10:28:24.763Z,1009.16
2018-03-15T10:29:09.471Z,1009.18
2018-03-15T10:29:54.229Z,1009.17
2018-03-15T10:30:38.909Z,1009.20
2018-03-15T10:31:23.619Z,1009.17
2018-03-15T10:32:08.332Z,1009.18
2018-03-15T10:32:53.052Z,1009.17
2018-03-15T10:33:37.769Z,1009.20
2018-03-15T10:34:22.471Z,1009.23
2018-03-15T10:35:07.202Z,1009.22
2018-03-15T10:35:51.919Z,1009.23
2018-03-15T10:36:36.626Z,1009.18
2018-03-15T10:37:21.436Z,1009.13
2018-03-15T10:38:06.160Z,1009.08
2018-03-15T10:38:50.876Z,1009.01
2018-03-15T10:39:35.593Z,1008.94
2018-03-15T10:40:20.370Z,1008.93
2018-03-15T10:41:05.087Z,1008.93
2018-03-15T10:41:49.799Z,1008.91
2018-03-15T10:42:34.529Z,1008.97
2018-03-15T10:43:19.232Z,1008.94
2018-03-15T10:44:03.942Z,1008.97
2018-03-15T10:44:48.656Z,1008.99
2018-03-15T10:45:33.379Z,1009.03
2018-03-15T10:46:18.147Z,1009.02
2018-03-15T10:47:02.866Z,1009.00
2018-03-15T10:47:47.588Z,1009.05
2018-03-15T10:48:32.302Z,1009.01
2018-03-15T10:49:17.020Z,1009.00
2018-03-15T10:50:01.743Z,1008.96
2018-03-15T10:50:46.453Z,1008.96
2018-03-15T10:51:31.165Z,1009.04
2018-03-15T10:52:15.884Z,1008.99
2018-03-15T10:53:00.599Z,1008.96
2018-03-15T10:53:45.354Z,1008.95
2018-03-15T10:54:30.114Z,1008.96
2018-03-15T10:55:14.834Z,1008.93
2018-03-15T10:55:59.547Z,1008.94
2018-03-15T10:56:44.261Z,1008.92
2018-03-15T10:57:28.980Z,1008.95
2018-03-15T10:58:13.691Z,1008.95
2018-03-15T10:58:58.406Z,1008.91
2018-03-15T10:59:43.181Z,1008.91
2018-03-15T11:00:27.888Z,1008.87
2018-03-15T11:01:12.597Z,1008.82
2018-03-15T11:01:57.310Z,1008.79
2018-03-15T11:02:42.042Z,1008.81
2018-03-15T11:03:26.747Z,1008.72
2018-03-15T11:04:11.461Z,1008.66
2018-03-15T11:04:56.185Z,1008.56
2018-03-15T11:05:40.894Z,1008.55
2018-03-15T11:06:25.600Z,1008.55
2018-03-15T11:07:10.353Z,1008.59
2018-03-15T11:07:55.068Z,1008.62
2018-03-15T11:08:39.788Z,1008.69
2018-03-15T11:09:24.501Z,1008.68
2018-03-15T11:10:09.259Z,1008.68
2018-03-15T11:10:53.978Z,1008.66
2018-03-15T11:11:38.695Z,1008.62
2018-03-15T11:12:23.403Z,1008.58
2018-03-15T11:13:08.104Z,1008.57
2018-03-15T11:13:52.819Z,1008.54
2018-03-15T11:14:37.544Z,1008.54
2018-03-15T11:15:22.266Z,1008.51
2018-03-15T11:16:06.973Z,1008.50
2018-03-15T11:16:51.694Z,1008.49
2018-03-15T11:17:36.400Z,1008.44
2018-03-15T11:18:21.112Z,1008.41
2018-03-15T11:19:05.833Z,1008.37
2018-03-15T11:19:50.545Z,1008.31
2018-03-15T11:20:35.270Z,1008.23
2018-03-15T11:21:19.979Z,1008.17
2018-03-15T11:22:04.692Z,1008.10
2018-03-15T11:22:49.414Z,1008.07
2018-03-15T11:23:34.116Z,1008.01
2018-03-15T11:24:18.827Z,1007.97
2018-03-15T11:25:03.552Z,1007.96
2018-03-15T11:25:48.261Z,1007.92
2018-03-15T11:26:32.971Z,1007.96
2018-03-15T11:27:17.679Z,1007.91
2018-03-15T11:28:02.385Z,1007.92
2018-03-15T11:28:47.096Z,1007.88
2018-03-15T11:29:31.800Z,1007.90
2018-03-15T11:30:16.512Z,1007.89
2018-03-15T11:31:01.279Z,1007.88
2018-03-15T11:31:46.454Z,1007.83
2018-03-15T11:32:31.120Z,1007.77
2018-03-15T11:33:15.821Z,1007.76
2018-03-15T11:34:00.527Z,1007.72
2018-03-15T11:34:45.244Z,1007.72
2018-03-15T11:35:29.927Z,1007.67
2018-03-15T11:36:14.638Z,1007.69
2018-03-15T11:36:59.372Z,1007.65
2018-03-15T11:37:44.072Z,1007.59
2018-03-15T11:38:28.790Z,1007.54
2018-03-15T11:39:13.710Z,1007.57
2018-03-15T11:39:58.408Z,1007.57
2018-03-15T11:40:43.146Z,1007.55
2018-03-15T11:41:27.904Z,1007.49
2018-03-15T11:42:12.646Z,1007.49
2018-03-15T11:42:57.376Z,1007.52
2018-03-15T11:43:42.171Z,1007.47
2018-03-15T11:44:26.856Z,1007.47
2018-03-15T11:45:11.566Z,1007.40
2018-03-15T11:45:56.285Z,1007.38
2018-03-15T11:46:40.989Z,1007.40
2018-03-15T11:47:25.700Z,1007.37
2018-03-15T11:48:10.422Z,1007.33
2018-03-15T11:48:55.124Z,1007.32
2018-03-15T11:49:39.833Z,1007.27
2018-03-15T11:50:24.570Z,1007.26
2018-03-15T11:51:09.332Z,1007.25
2018-03-15T11:51:54.056Z,1007.24
2018-03-15T11:52:38.789Z,1007.29
2018-03-15T11:53:23.695Z,1007.25
2018-03-15T11:54:08.401Z,1007.23
2018-03-15T11:54:53.110Z,1007.27
2018-03-15T11:55:37.880Z,1007.26
2018-03-15T11:56:22.599Z,1007.26
2018-03-15T11:57:07.303Z,1007.26
2018-03-15T11:57:52.061Z,1007.26
2018-03-15T11:58:36.764Z,1007.28
2018-03-15T11:59:21.473Z,1007.20
2018-03-15T12:00:06.225Z,1007.18
2018-03-15T12:00:50.929Z,1007.19
2018-03-15T12:01:35.678Z,1007.22
2018-03-15T12:02:20.359Z,1007.16
2018-03-15T12:03:05.075Z,1007.14
2018-03-15T12:03:49.793Z,1007.14
2018-03-15T12:04:34.518Z,1007.16
2018-03-15T12:05:19.225Z,1007.13
2018-03-15T12:06:03.944Z,1007.11
2018-03-15T12:06:48.667Z,1007.07
2018-03-15T12:07:33.442Z,1007.02
2018-03-15T12:08:18.254Z,1007.02
2018-03-15T12:09:02.947Z,1007.01
2018-03-15T12:09:47.654Z,1007.02
2018-03-15T12:10:32.359Z,1007.00
2018-03-15T12:11:17.071Z,1006.92
2018-03-15T12:12:01.824Z,1006.94
2018-03-15T12:12:46.577Z,1006.99
2018-03-15T12:13:31.368Z,1006.92
2018-03-15T12:14:16.085Z,1006.92
2018-03-15T12:15:00.792Z,1006.90
2018-03-15T12:15:45.496Z,1006.87
2018-03-15T12:16:30.189Z,1006.87
2018-03-15T12:17:14.935Z,1006.85
2018-03-15T12:17:59.622Z,1006.82
2018-03-15T12:18:44.328Z,1006.77
2018-03-15T12:19:29.058Z,1006.77
2018-03-15T12:20:13.766Z,1006.75
2018-03-15T12:20:58.474Z,1006.75
2018-03-15T12:21:43.203Z,1006.75
2018-03-15T12:22:27.910Z,1006.71
2018-03-15T12:23:12.615Z,1006.71
2018-03-15T12:23:57.323Z,1006.68
2018-03-15T12:24:42.127Z,1006.72
2018-03-15T12:25:26.822Z,1006.64
2018-03-15T12:26:11.534Z,1006.64
2018-03-15T12:26:56.261Z,1006.63
2018-03-15T12:27:40.991Z,1006.59
2018-03-15T12:28:25.725Z,1006.60
2018-03-15T12:29:10.425Z,1006.61
2018-03-15T12:29:55.199Z,1006.55
2018-03-15T12:30:39.951Z,1006.52
2018-03-15T12:31:24.664Z,1006.51
2018-03-15T12:32:09.398Z,1006.51
2018-03-15T12:32:54.131Z,1006.49
2018-03-15T12:33:38.855Z,1006.42
2018-03-15T12:34:23.563Z,1006.40
2018-03-15T12:35:08.332Z,1006.39
2018-03-15T12:35:53.028Z,1006.39
2018-03-15T12:36:37.811Z,1006.40
2018-03-15T12:37:22.519Z,1006.40
2018-03-15T12:38:07.300Z,1006.38
2018-03-15T12:38:52.011Z,1006.38
2018-03-15T12:39:36.719Z,1006.35
2018-03-15T12:40:21.445Z,1006.34
2018-03-15T12:41:06.151Z,1006.34
2018-03-15T12:41:50.888Z,1006.37
2018-03-15T12:42:35.600Z,1006.42
2018-03-15T12:43:20.300Z,1006.45
2018-03-15T12:44:05.005Z,1006.42
2018-03-15T12:44:49.711Z,1006.45
2018-03-15T12:45:34.420Z,1006.44
2018-03-15T12:46:19.178Z,1006.44
2018-03-15T12:47:03.919Z,1006.43
2018-03-15T12:47:48.629Z,1006.53
2018-03-15T12:48:33.343Z,1006.49
2018-03-15T12:49:18.144Z,1006.52
2018-03-15T12:50:02.857Z,1006.45
2018-03-15T12:50:47.574Z,1006.46
2018-03-15T12:51:32.274Z,1006.46
2018-03-15T12:52:16.988Z,1006.42
2018-03-15T12:53:01.753Z,1006.43
2018-03-15T12:53:46.474Z,1006.42
2018-03-15T12:54:31.199Z,1006.41
2018-03-15T12:55:15.954Z,1006.39
2018-03-15T12:56:00.663Z,1006.43
2018-03-15T12:56:45.366Z,1006.43
2018-03-15T12:57:30.121Z,1006.44
2018-03-15T12:58:14.799Z,1006.34
2018-03-15T12:58:59.509Z,1006.32
2018-03-15T12:59:44.219Z,1006.33
2018-03-15T13:00:28.964Z,1006.35
2018-03-15T13:01:13.657Z,1006.27
2018-03-15T13:01:58.409Z,1006.28
2018-03-15T13:02:43.396Z,1006.26
2018-03-15T13:03:28.106Z,1006.33
2018-03-15T13:04:12.814Z,1006.32
2018-03-15T13:04:57.528Z,1006.32
2018-03-15T13:05:42.270Z,1006.33
2018-03-15T13:06:26.970Z,1006.29
2018-03-15T13:07:11.774Z,1006.27
2018-03-15T13:07:56.480Z,1006.30
2018-03-15T13:08:41.211Z,1006.31
2018-03-15T13:09:25.989Z,1006.26
2018-03-15T13:10:10.693Z,1006.28
2018-03-15T13:10:55.406Z,1006.27
2018-03-15T13:11:40.166Z,1006.25
2018-03-15T13:12:25.091Z,1006.28
2018-03-15T13:13:09.823Z,1006.27
2018-03-15T13:13:54.505Z,1006.26
2018-03-15T13:14:39.237Z,1006.28
2018-03-15T13:15:23.944Z,1006.26
2018-03-15T13:16:08.652Z,1006.26
2018-03-15T13:16:53.441Z,1006.27
2018-03-15T13:17:38.164Z,1006.25
2018-03-15T13:18:22.875Z,1006.22
2018-03-15T13:19:07.602Z,1006.20
2018-03-15T13:19:52.312Z,1006.19
2018-03-15T13:20:37.023Z,1006.19
2018-03-15T13:21:21.753Z,1006.17
2018-03-15T13:22:06.491Z,1006.14
2018-03-15T13:22:51.207Z,1006.17
2018-03-15T13:23:35.938Z,1006.18
2018-03-15T13:24:20.649Z,1006.19
2018-03-15T13:25:05.372Z,1006.16
2018-03-15T13:25:50.104Z,1006.25
2018-03-15T13:26:34.811Z,1006.20
2018-03-15T13:27:19.581Z,1006.28
2018-03-15T13:28:04.302Z,1006.32
2018-03-15T13:28:49.038Z,1006.37
2018-03-15T13:29:33.765Z,1006.38
2018-03-15T13:30:18.567Z,1006.36
2018-03-15T13:31:03.235Z,1006.35
2018-03-15T13:31:47.985Z,1006.31
2018-03-15T13:32:32.690Z,1006.32
2018-03-15T13:33:17.399Z,1006.33
2018-03-15T13:34:02.107Z,1006.30
2018-03-15T13:34:46.839Z,1006.29
2018-03-15T13:35:31.556Z,1006.34
2018-03-15T13:36:16.256Z,1006.33
2018-03-15T13:37:00.987Z,1006.30
2018-03-15T13:37:45.693Z,1006.33
2018-03-15T13:38:30.400Z,1006.31
2018-03-15T13:39:15.185Z,1006.31
2018-03-15T13:39:59.832Z,1006.32
2018-03-15T13:40:44.542Z,1006.30
2018-03-15T13:41:29.250Z,1006.33
2018-03-15T13:42:14.286Z,1006.41
2018-03-15T13:42:58.991Z,1006.38
2018-03-15T13:43:43.695Z,1006.39
2018-03-15T13:44:28.409Z,1006.40
2018-03-15T13:45:13.116Z,1006.37
2018-03-15T13:45:57.826Z,1006.38
2018-03-15T13:46:42.556Z,1006.38
2018-03-15T13:47:27.365Z,1006.36
2018-03-15T13:48:12.086Z,1006.34
2018-03-15T13:48:56.820Z,1006.34
2018-03-15T13:49:41.563Z,1006.35
2018-03-15T13:50:26.276Z,1006.33
2018-03-15T13:51:11.012Z,1006.32
2018-03-15T13:51:55.784Z,1006.32
2018-03-15T13:52:40.488Z,1006.31
2018-03-15T13:53:25.251Z,1006.29
2018-03-15T13:54:09.982Z,1006.28
2018-03-15T13:54:54.689Z,1006.24
2018-03-15T13:55:39.398Z,1006.23
2018-03-15T13:56:24.132Z,1006.20
2018-03-15T13:57:08.910Z,1006.23
2018-03-15T13:57:53.618Z,1006.22
2018-03-15T13:58:38.404Z,1006.26
2018-03-15T13:59:23.105Z,1006.28
2018-03-15T14:00:07.814Z,1006.29
2018-03-15T14:00:52.586Z,1006.28
2018-03-15T14:01:37.295Z,1006.28
2018-03-15T14:02:22.027Z,1006.23
2018-03-15T14:03:06.867Z,1006.21
2018-03-15T14:03:51.588Z,1006.17
2018-03-15T14:04:36.296Z,1006.13
2018-03-15T14:05:21.007Z,1006.08
2018-03-15T14:06:05.733Z,1006.09
2018-03-15T14:06:50.446Z,1006.08
2018-03-15T14:07:35.188Z,1006.03
2018-03-15T14:08:19.883Z,1006.04
2018-03-15T14:09:04.594Z,1006.00
2018-03-15T14:09:49.303Z,1005.99
2018-03-15T14:10:34.080Z,1006.01
2018-03-15T14:11:18.789Z,1006.02
2018-03-15T14:12:03.500Z,1006.01
2018-03-15T14:12:48.231Z,1006.00
2018-03-15T14:13:32.942Z,1005.99
2018-03-15T14:14:17.646Z,1005.99
2018-03-15T14:15:02.355Z,1005.92
2018-03-15T14:15:47.114Z,1005.94
2018-03-15T14:16:31.846Z,1005.91
2018-03-15T14:17:16.555Z,1005.94
2018-03-15T14:18:01.268Z,1005.89
2018-03-15T14:18:45.994Z,1005.89
2018-03-15T14:19:30.710Z,1005.85
2018-03-15T14:20:15.436Z,1005.83
2018-03-15T14:21:00.167Z,1005.83
2018-03-15T14:21:44.881Z,1005.84
2018-03-15T14:22:29.681Z,1005.84
2018-03-15T14:23:14.434Z,1005.80
2018-03-15T14:23:59.120Z,1005.84
2018-03-15T14:24:43.825Z,1005.83
2018-03-15T14:25:28.533Z,1005.84
2018-03-15T14:26:13.259Z,1005.80
2018-03-15T14:26:57.973Z,1005.83
2018-03-15T14:27:42.682Z,1005.85
2018-03-15T14:28:27.390Z,1005.85
2018-03-15T14:29:12.100Z,1005.84
2018-03-15T14:29:56.807Z,1005.81
2018-03-15T14:30:41.730Z,1005.86
2018-03-15T14:31:26.417Z,1005.86
2018-03-15T14:32:11.152Z,1005.87
2018-03-15T14:32:55.834Z,1005.91
2018-03-15T14:33:40.567Z,1005.84
2018-03-15T14:34:25.321Z,1005.90
2018-03-15T14:35:10.028Z,1005.91
2018-03-15T14:35:54.736Z,1005.86
2018-03-15T14:36:39.446Z,1005.87
2018-03-15T14:37:24.186Z,1005.88
2018-03-15T14:38:08.911Z,1005.86
2018-03-15T14:38:53.626Z,1005.85
2018-03-15T14:39:38.369Z,1005.88
2018-03-15T14:40:23.064Z,1005.91
2018-03-15T14:41:07.788Z,1005.92
2018-03-15T14:41:52.536Z,1005.90
2018-03-15T14:42:37.302Z,1005.90
2018-03-15T14:43:22.009Z,1005.86
2018-03-15T14:44:06.801Z,1005.87
2018-03-15T14:44:51.586Z,1005.86
2018-03-15T14:45:36.263Z,1005.87
2018-03-15T14:46:21.026Z,1005.89
2018-03-15T14:47:05.774Z,1005.85
2018-03-15T14:47:50.499Z,1005.80
2018-03-15T14:48:35.299Z,1005.80
2018-03-15T14:49:20.031Z,1005.76
2018-03-15T14:50:04.735Z,1005.76
2018-03-15T14:50:49.460Z,1005.70
2018-03-15T14:51:34.221Z,1005.75
2018-03-15T14:52:18.954Z,1005.75
2018-03-15T14:53:03.708Z,1005.73
2018-03-15T14:53:48.523Z,1005.72
2018-03-15T14:54:33.278Z,1005.74
2018-03-15T14:55:17.979Z,1005.76
2018-03-15T14:56:02.917Z,1005.68
2018-03-15T14:56:47.634Z,1005.69
2018-03-15T14:57:32.422Z,1005.70
2018-03-15T14:58:17.167Z,1005.70
2018-03-15T14:59:01.903Z,1005.73
2018-03-15T14:59:46.671Z,1005.71
2018-03-15T15:00:31.496Z,1005.72
2018-03-15T15:01:16.233Z,1005.74
2018-03-15T15:02:00.942Z,1005.75
2018-03-15T15:02:45.648Z,1005.72
2018-03-15T15:03:30.430Z,1005.76
2018-03-15T15:04:15.162Z,1005.77
2018-03-15T15:04:59.921Z,1005.79
2018-03-15T15:05:44.650Z,1005.76
2018-03-15T15:06:29.362Z,1005.77
2018-03-15T15:07:14.071Z,1005.79
2018-03-15T15:07:58.799Z,1005.78
2018-03-15T15:08:43.513Z,1005.78
2018-03-15T15:09:28.219Z,1005.77
2018-03-15T15:10:12.956Z,1005.78
2018-03-15T15:10:57.693Z,1005.77
2018-03-15T15:11:42.405Z,1005.78
2018-03-15T15:12:27.147Z,1005.76
2018-03-15T15:13:11.927Z,1005.74
2018-03-15T15:13:56.631Z,1005.74
2018-03-15T15:14:41.413Z,1005.74
2018-03-15T15:15:26.119Z,1005.75
2018-03-15T15:16:10.824Z,1005.73
2018-03-15T15:16:55.535Z,1005.76
2018-03-15T15:17:40.268Z,1005.74
2018-03-15T15:18:24.978Z,1005.74
2018-03-15T15:19:09.681Z,1005.71
2018-03-15T15:19:54.400Z,1005.68
2018-03-15T15:20:39.173Z,1005.67
2018-03-15T15:21:23.880Z,1005.68
2018-03-15T15:22:08.590Z,1005.63
2018-03-15T15:22:53.326Z,1005.66
2018-03-15T15:23:38.037Z,1005.64
2018-03-15T15:24:22.736Z,1005.65
2018-03-15T15:25:07.501Z,1005.68
2018-03-15T15:25:52.211Z,1005.66
2018-03-15T15:26:36.921Z,1005.66
2018-03-15T15:27:21.700Z,1005.64
2018-03-15T15:28:06.404Z,1005.66
2018-03-15T15:28:51.129Z,1005.63
2018-03-15T15:29:35.891Z,1005.64
2018-03-15T15:30:20.815Z,1005.69
2018-03-15T15:31:05.537Z,1005.65
2018-03-15T15:31:50.281Z,1005.65
2018-03-15T15:32:35.017Z,1005.65
2018-03-15T15:33:19.744Z,1005.66
2018-03-15T15:34:04.449Z,1005.63
2018-03-15T15:34:49.161Z,1005.59
2018-03-15T15:35:33.892Z,1005.62
2018-03-15T15:36:18.603Z,1005.63
2018-03-15T15:37:03.315Z,1005.58
2018-03-15T15:37:48.022Z,1005.63
2018-03-15T15:38:32.795Z,1005.61
2018-03-15T15:39:17.560Z,1005.62
2018-03-15T15:40:02.293Z,1005.60
2018-03-15T15:40:47.002Z,1005.58